Time;durP1;ratioP1;P1;durP2;ratioP2;P2;SDS_P1;SDS_P2;PMS_P1;PMS_P2;Temp;Humidity;BMP_temperature;BMP_pressure;BME280_temperature;BME280_humidity;BME280_pressure;Samples;Min_cycle;Max_cycle;Signal;HPM_P1;HPM_P2
2023/03/02 00:01:24;;;;;;;2.50;0.82;;;;;;;;;;4971529;28;20445;-62
2023/03/02 00:03:51;;;;;;;1.70;0.73;;;;;;;;;;4972177;28;20482;-62
2023/03/02 00:06:18;;;;;;;1.23;0.55;;;;;;;;;;4976252;28;20038;-61
2023/03/02 00:08:45;;;;;;;0.30;0.30;;;;;;;;;;4976566;28;20034;-61
2023/03/02 00:11:14;;;;;;;0.70;0.50;;;;;;;;;;4976389;28;20390;-62
2023/03/02 00:13:41;;;;;;;0.65;0.38;;;;;;;;;;4976746;28;20027;-61
2023/03/02 00:16:08;;;;;;;3.15;0.55;;;;;;;;;;4975491;28;20038;-62
2023/03/02 00:18:34;;;;;;;2.85;0.82;;;;;;;;;;4971605;28;20077;-61
2023/03/02 00:21:01;;;;;;;0.88;0.50;;;;;;;;;;4971583;28;20038;-62
2023/03/02 00:23:28;;;;;;;2.75;0.65;;;;;;;;;;4969877;28;20034;-61
2023/03/02 00:25:55;;;;;;;2.80;0.80;;;;;;;;;;4970696;28;20474;-62
2023/03/02 00:28:21;;;;;;;2.35;0.93;;;;;;;;;;4975390;28;20031;-61
2023/03/02 00:30:48;;;;;;;1.70;0.68;;;;;;;;;;4975603;28;20509;-61
2023/03/02 00:33:15;;;;;;;1.60;0.95;;;;;;;;;;4975408;28;20386;-61
2023/03/02 00:35:41;;;;;;;19.17;1.52;;;;;;;;;;4975453;28;20026;-61
2023/03/02 00:38:08;;;;;;;4.43;1.63;;;;;;;;;;4975369;28;20085;-61
2023/03/02 00:40:35;;;;;;;3.28;1.63;;;;;;;;;;4970935;28;20027;-61
2023/03/02 00:43:02;;;;;;;6.25;1.05;;;;;;;;;;4970877;28;20038;-62
2023/03/02 00:45:29;;;;;;;1.90;1.05;;;;;;;;;;4970304;28;20074;-61
2023/03/02 00:47:56;;;;;;;2.20;1.08;;;;;;;;;;4970225;28;20031;-62
2023/03/02 00:50:22;;;;;;;1.05;0.70;;;;;;;;;;4974635;28;20147;-61
2023/03/02 00:52:49;;;;;;;1.75;1.00;;;;;;;;;;4975735;28;20023;-62
2023/03/02 00:55:16;;;;;;;6.63;1.73;;;;;;;;;;4975461;28;20023;-62
2023/03/02 00:57:42;;;;;;;2.80;0.80;;;;;;;;;;4975760;28;20026;-62
2023/03/02 01:00:09;;;;;;;2.78;1.00;;;;;;;;;;4975562;28;20034;-61
2023/03/02 01:02:42;;;;;;;1.88;1.02;;;;;;;;;;4970373;28;20386;-62
2023/03/02 01:05:09;;;;;;;3.33;1.10;;;;;;;;;;4970066;28;20046;-61
2023/03/02 01:07:36;;;;;;;2.42;1.30;;;;;;;;;;4970459;28;20054;-61
2023/03/02 01:10:03;;;;;;;7.88;1.40;;;;;;;;;;4970578;28;20070;-61
2023/03/02 01:12:29;;;;;;;1.20;0.77;;;;;;;;;;4973494;28;20034;-61
2023/03/02 01:14:56;;;;;;;5.78;1.55;;;;;;;;;;4975313;28;20031;-62
2023/03/02 01:17:24;;;;;;;8.38;1.52;;;;;;;;;;4975487;28;20029;-62
2023/03/02 01:19:51;;;;;;;3.67;1.08;;;;;;;;;;4974935;28;20499;-61
2023/03/02 01:22:18;;;;;;;2.15;1.15;;;;;;;;;;4975279;28;20506;-62
2023/03/02 01:24:45;;;;;;;1.90;1.10;;;;;;;;;;4971213;28;20031;-61
2023/03/02 01:27:11;;;;;;;5.93;0.90;;;;;;;;;;4970197;28;20031;-62
2023/03/02 01:29:38;;;;;;;5.57;1.33;;;;;;;;;;4970119;28;20093;-62
2023/03/02 01:32:05;;;;;;;0.97;0.70;;;;;;;;;;4969857;28;20053;-62
2023/03/02 01:34:32;;;;;;;1.23;0.80;;;;;;;;;;4972809;28;20105;-62
2023/03/02 01:36:59;;;;;;;1.50;0.67;;;;;;;;;;4974685;28;20102;-62
2023/03/02 01:39:25;;;;;;;1.67;0.60;;;;;;;;;;4974690;28;20030;-62
2023/03/02 01:41:53;;;;;;;0.93;0.60;;;;;;;;;;4975051;28;20424;-62
2023/03/02 01:44:38;;;;;;;3.20;0.90;;;;;;;;;;4975008;28;20030;-61
2023/03/02 01:47:19;;;;;;;1.83;0.80;;;;;;;;;;4971608;28;20033;-62
2023/03/02 01:49:49;;;;;;;2.10;1.03;;;;;;;;;;4968857;28;20086;-62
2023/03/02 01:52:16;;;;;;;2.83;0.87;;;;;;;;;;4969542;28;20061;-61
2023/03/02 01:54:43;;;;;;;6.07;1.23;;;;;;;;;;4969342;28;20039;-62
2023/03/02 01:57:10;;;;;;;3.37;1.43;;;;;;;;;;4972681;28;20030;-61
2023/03/02 01:59:38;;;;;;;2.00;1.07;;;;;;;;;;4974540;28;20027;-62
2023/03/02 02:02:06;;;;;;;8.60;1.40;;;;;;;;;;4974579;28;20029;-61
2023/03/02 02:04:34;;;;;;;1.70;1.00;;;;;;;;;;4973870;28;20077;-61
2023/03/02 02:07:04;;;;;;;2.27;1.10;;;;;;;;;;4974172;28;20031;-61
2023/03/02 02:09:34;;;;;;;1.53;0.80;;;;;;;;;;4970718;28;20062;-61
2023/03/02 02:12:01;;;;;;;1.70;1.03;;;;;;;;;;4968874;28;20069;-61
2023/03/02 02:14:27;;;;;;;4.47;1.63;;;;;;;;;;4969288;28;20062;-61
2023/03/02 02:16:54;;;;;;;1.30;0.90;;;;;;;;;;4969127;28;20057;-61
2023/03/02 02:19:21;;;;;;;15.20;0.87;;;;;;;;;;4971517;28;20033;-62
2023/03/02 02:21:47;;;;;;;1.90;1.20;;;;;;;;;;4955092;29;20398;-61
2023/03/02 02:24:27;;;;;;;0.77;0.73;;;;;;;;;;4972582;28;20413;-61
2023/03/02 02:26:55;;;;;;;1.30;0.90;;;;;;;;;;4974110;28;20019;-61
2023/03/02 02:29:21;;;;;;;1.20;0.87;;;;;;;;;;4974077;28;20034;-61
2023/03/02 02:31:51;;;;;;;3.87;1.53;;;;;;;;;;4970923;28;20181;-61
2023/03/02 02:34:22;;;;;;;4.07;1.53;;;;;;;;;;4968396;28;20061;-61
2023/03/02 02:36:50;;;;;;;12.20;1.37;;;;;;;;;;4969060;28;20076;-62
2023/03/02 02:39:37;;;;;;;2.63;1.60;;;;;;;;;;4968659;28;20039;-61
2023/03/02 02:42:06;;;;;;;4.13;2.03;;;;;;;;;;4972173;28;20105;-61
2023/03/02 02:44:32;;;;;;;9.97;1.40;;;;;;;;;;4973565;28;20081;-61
2023/03/02 02:46:59;;;;;;;11.33;1.90;;;;;;;;;;4974083;28;20061;-61
2023/03/02 02:49:26;;;;;;;23.73;1.77;;;;;;;;;;4973056;28;20035;-61
2023/03/02 02:51:53;;;;;;;4.30;1.53;;;;;;;;;;4973721;28;20110;-61
2023/03/02 02:54:19;;;;;;;4.73;1.43;;;;;;;;;;4970271;28;20031;-61
2023/03/02 02:56:46;;;;;;;3.87;1.87;;;;;;;;;;4968700;28;20031;-61
2023/03/02 02:59:18;;;;;;;6.70;2.40;;;;;;;;;;4968861;28;20106;-61
2023/03/02 03:01:45;;;;;;;4.93;1.87;;;;;;;;;;4968237;28;20045;-61
2023/03/02 03:04:14;;;;;;;13.37;2.03;;;;;;;;;;4970959;28;20030;-61
2023/03/02 03:06:49;;;;;;;2.40;1.30;;;;;;;;;;4973511;28;20030;-62
2023/03/02 03:09:16;;;;;;;2.77;1.63;;;;;;;;;;4970619;28;20035;-61
2023/03/02 03:11:44;;;;;;;2.43;1.23;;;;;;;;;;4961900;28;20118;-61
2023/03/02 03:14:13;;;;;;;3.10;1.43;;;;;;;;;;4971924;28;20046;-61
2023/03/02 03:16:40;;;;;;;1.83;1.30;;;;;;;;;;4950396;28;20027;-62
2023/03/02 03:19:10;;;;;;;2.80;1.40;;;;;;;;;;4949073;28;20133;-61
2023/03/02 03:21:37;;;;;;;5.83;1.40;;;;;;;;;;4949135;28;20031;-61
2023/03/02 03:24:04;;;;;;;5.63;1.83;;;;;;;;;;4952876;28;20501;-61
2023/03/02 03:26:30;;;;;;;1.83;1.23;;;;;;;;;;4957206;28;20023;-62
2023/03/02 03:28:57;;;;;;;4.17;1.67;;;;;;;;;;4977321;28;20432;-62
2023/03/02 03:31:25;;;;;;;3.80;1.43;;;;;;;;;;4977163;28;20482;-62
2023/03/02 03:33:52;;;;;;;6.17;1.47;;;;;;;;;;4977319;28;20038;-61
2023/03/02 03:36:19;;;;;;;2.47;1.50;;;;;;;;;;4976549;28;20022;-61
2023/03/02 03:38:45;;;;;;;2.70;1.67;;;;;;;;;;4974197;28;20061;-61
2023/03/02 03:41:14;;;;;;;6.73;1.47;;;;;;;;;;4971946;28;20023;-61
2023/03/02 03:43:41;;;;;;;1.67;1.13;;;;;;;;;;4961935;28;20501;-61
2023/03/02 03:46:08;;;;;;;1.57;1.23;;;;;;;;;;4962838;28;20524;-61
2023/03/02 03:48:34;;;;;;;4.07;1.50;;;;;;;;;;4960924;28;20024;-61
2023/03/02 03:51:01;;;;;;;2.67;1.33;;;;;;;;;;4968685;28;20498;-61
2023/03/02 03:53:28;;;;;;;11.13;1.70;;;;;;;;;;4969713;28;20066;-61
2023/03/02 03:55:56;;;;;;;2.20;1.43;;;;;;;;;;4969903;28;20019;-61
2023/03/02 03:58:23;;;;;;;3.07;1.30;;;;;;;;;;4966149;28;20025;-61
2023/03/02 04:00:50;;;;;;;27.13;1.70;;;;;;;;;;4966012;28;20023;-61
2023/03/02 04:03:18;;;;;;;2.97;1.60;;;;;;;;;;4965981;28;20034;-61
2023/03/02 04:05:46;;;;;;;3.37;1.83;;;;;;;;;;4963809;28;20492;-62
2023/03/02 04:08:13;;;;;;;1.63;1.20;;;;;;;;;;4971507;28;20030;-61
2023/03/02 04:10:40;;;;;;;1.77;1.07;;;;;;;;;;4972555;28;20493;-61
2023/03/02 04:13:06;;;;;;;2.60;1.30;;;;;;;;;;4969162;28;20065;-61
2023/03/02 04:15:33;;;;;;;0.93;0.70;;;;;;;;;;4957159;28;20031;-61
2023/03/02 04:18:00;;;;;;;3.00;1.30;;;;;;;;;;4966966;28;20023;-60
2023/03/02 04:20:27;;;;;;;2.20;0.90;;;;;;;;;;4976514;28;20066;-61
2023/03/02 04:22:55;;;;;;;3.17;1.13;;;;;;;;;;4973403;28;20417;-61
2023/03/02 04:25:23;;;;;;;2.07;1.10;;;;;;;;;;4958426;28;20038;-61
2023/03/02 04:27:50;;;;;;;0.97;0.67;;;;;;;;;;4970610;28;20037;-62
2023/03/02 04:30:20;;;;;;;1.63;1.03;;;;;;;;;;4965028;28;20166;-61
2023/03/02 04:32:46;;;;;;;2.27;1.13;;;;;;;;;;4952301;28;20036;-61
2023/03/02 04:35:14;;;;;;;20.43;1.33;;;;;;;;;;4956307;28;20399;-61
2023/03/02 04:37:41;;;;;;;1.60;1.10;;;;;;;;;;4956941;28;20067;-61
2023/03/02 04:40:08;;;;;;;1.13;0.77;;;;;;;;;;4956590;28;20023;-62
2023/03/02 04:42:35;;;;;;;2.30;1.00;;;;;;;;;;4963738;28;20022;-61
2023/03/02 04:45:02;;;;;;;1.20;0.70;;;;;;;;;;4975160;28;20030;-61
2023/03/02 04:47:29;;;;;;;6.50;1.10;;;;;;;;;;4970957;28;20034;-61
2023/03/02 04:49:56;;;;;;;3.43;1.23;;;;;;;;;;4970655;28;20026;-61
2023/03/02 04:52:23;;;;;;;2.60;1.03;;;;;;;;;;4971120;28;20058;-61
2023/03/02 04:54:50;;;;;;;1.50;1.00;;;;;;;;;;4970907;28;20031;-61
2023/03/02 04:57:17;;;;;;;1.70;1.27;;;;;;;;;;4975578;28;20049;-61
2023/03/02 04:59:44;;;;;;;8.67;1.30;;;;;;;;;;4979586;28;20585;-61
2023/03/02 05:02:10;;;;;;;1.30;0.63;;;;;;;;;;4995250;28;20023;-62
2023/03/02 05:04:39;;;;;;;5.10;1.30;;;;;;;;;;4995166;28;20029;-62
2023/03/02 05:07:05;;;;;;;1.57;0.90;;;;;;;;;;4994558;28;20405;-61
2023/03/02 05:09:32;;;;;;;1.87;1.27;;;;;;;;;;4989878;28;20167;-61
2023/03/02 05:11:59;;;;;;;0.70;0.60;;;;;;;;;;4989940;28;20044;-61
2023/03/02 05:14:27;;;;;;;0.83;0.73;;;;;;;;;;4989836;28;20026;-61
2023/03/02 05:16:53;;;;;;;1.70;1.00;;;;;;;;;;4989923;28;20508;-61
2023/03/02 05:19:20;;;;;;;1.60;1.13;;;;;;;;;;4985467;28;20031;-61
2023/03/02 05:21:47;;;;;;;0.47;0.47;;;;;;;;;;4973659;28;20034;-61
2023/03/02 05:24:14;;;;;;;7.57;1.20;;;;;;;;;;4963264;28;20036;-62
2023/03/02 05:26:41;;;;;;;1.30;0.83;;;;;;;;;;4967638;28;20027;-62
2023/03/02 05:29:08;;;;;;;2.70;1.00;;;;;;;;;;4966956;28;20036;-62
2023/03/02 05:31:39;;;;;;;1.20;0.73;;;;;;;;;;4950720;28;20027;-62
2023/03/02 05:34:07;;;;;;;1.13;0.87;;;;;;;;;;4966235;28;20081;-62
2023/03/02 05:36:34;;;;;;;2.30;1.40;;;;;;;;;;4970085;28;20018;-61
2023/03/02 05:39:01;;;;;;;9.37;1.93;;;;;;;;;;4970063;28;20023;-62
2023/03/02 05:41:31;;;;;;;0.77;0.67;;;;;;;;;;4974031;28;20026;-62
2023/03/02 05:43:57;;;;;;;1.17;0.83;;;;;;;;;;4974607;28;20503;-62
2023/03/02 05:46:24;;;;;;;3.13;1.60;;;;;;;;;;4973236;28;20108;-61
2023/03/02 05:48:51;;;;;;;0.90;0.60;;;;;;;;;;4974381;28;20379;-61
2023/03/02 05:51:17;;;;;;;0.50;0.50;;;;;;;;;;4974227;28;20042;-61
2023/03/02 05:53:44;;;;;;;0.57;0.57;;;;;;;;;;4969830;28;20125;-62
2023/03/02 05:56:11;;;;;;;1.47;1.03;;;;;;;;;;4969373;28;20030;-62
2023/03/02 05:58:38;;;;;;;1.67;0.67;;;;;;;;;;4969423;28;20493;-61
2023/03/02 06:01:08;;;;;;;2.47;1.30;;;;;;;;;;4968986;28;20837;-62
2023/03/02 06:03:35;;;;;;;0.93;0.70;;;;;;;;;;4973068;28;20031;-61
2023/03/02 06:06:02;;;;;;;0.87;0.63;;;;;;;;;;4974077;28;20065;-61
2023/03/02 06:08:28;;;;;;;1.63;1.20;;;;;;;;;;4973072;28;20030;-63
2023/03/02 06:10:56;;;;;;;2.57;1.43;;;;;;;;;;4961615;28;20049;-61
2023/03/02 06:13:22;;;;;;;3.07;1.10;;;;;;;;;;4963422;28;20110;-61
2023/03/02 06:15:49;;;;;;;1.70;1.00;;;;;;;;;;4965886;28;20066;-60
2023/03/02 06:18:16;;;;;;;1.90;1.10;;;;;;;;;;4956702;28;20116;-61
2023/03/02 06:20:43;;;;;;;3.23;0.83;;;;;;;;;;4969081;28;20462;-61
2023/03/02 06:23:10;;;;;;;1.23;0.90;;;;;;;;;;4959790;28;20117;-61
2023/03/02 06:25:40;;;;;;;3.53;0.70;;;;;;;;;;4967439;28;20041;-61
2023/03/02 06:28:06;;;;;;;1.03;0.80;;;;;;;;;;4973901;28;20031;-61
2023/03/02 06:30:33;;;;;;;3.53;1.47;;;;;;;;;;4973546;28;20037;-61
2023/03/02 06:33:00;;;;;;;2.73;1.27;;;;;;;;;;4973395;28;20132;-61
2023/03/02 06:35:27;;;;;;;9.43;1.40;;;;;;;;;;4973410;28;20029;-61
2023/03/02 06:37:54;;;;;;;3.10;1.30;;;;;;;;;;4970502;28;20387;-62
2023/03/02 06:40:21;;;;;;;2.07;1.30;;;;;;;;;;4968862;28;20018;-61
2023/03/02 06:42:47;;;;;;;2.83;1.03;;;;;;;;;;4968120;28;20478;-61
2023/03/02 06:45:17;;;;;;;2.13;1.07;;;;;;;;;;4968390;28;20449;-61
2023/03/02 06:47:44;;;;;;;2.43;1.33;;;;;;;;;;4971158;28;20061;-62
2023/03/02 06:50:11;;;;;;;1.13;0.63;;;;;;;;;;4973458;28;20093;-61
2023/03/02 06:52:37;;;;;;;1.07;0.73;;;;;;;;;;4973253;28;20033;-61
2023/03/02 06:55:04;;;;;;;1.50;0.90;;;;;;;;;;4973650;28;20054;-61
2023/03/02 06:57:34;;;;;;;0.77;0.60;;;;;;;;;;4973252;28;20085;-61
2023/03/02 07:00:05;;;;;;;1.57;1.00;;;;;;;;;;4970445;28;20050;-61
2023/03/02 07:02:32;;;;;;;1.43;0.93;;;;;;;;;;4968377;28;20041;-62
2023/03/02 07:04:59;;;;;;;2.30;1.20;;;;;;;;;;4968334;28;20062;-61
2023/03/02 07:07:25;;;;;;;1.00;0.73;;;;;;;;;;4967811;28;20386;-61
2023/03/02 07:09:52;;;;;;;4.53;1.47;;;;;;;;;;4970129;28;20096;-60
2023/03/02 07:12:19;;;;;;;1.10;0.90;;;;;;;;;;4973439;28;20426;-61
2023/03/02 07:14:45;;;;;;;4.77;0.90;;;;;;;;;;4973266;28;20093;-61
2023/03/02 07:17:12;;;;;;;2.93;1.07;;;;;;;;;;4973172;28;20039;-61
2023/03/02 07:19:39;;;;;;;1.23;0.80;;;;;;;;;;4973417;28;20482;-60
2023/03/02 07:22:06;;;;;;;0.73;0.70;;;;;;;;;;4970877;28;20054;-61
2023/03/02 07:24:32;;;;;;;1.30;0.80;;;;;;;;;;4967625;28;20035;-61
2023/03/02 07:26:59;;;;;;;2.97;1.53;;;;;;;;;;4968221;28;20368;-61
2023/03/02 07:29:26;;;;;;;9.03;1.10;;;;;;;;;;4967930;28;20038;-61
2023/03/02 07:31:55;;;;;;;2.10;0.77;;;;;;;;;;4969567;28;20031;-61
2023/03/02 07:34:25;;;;;;;2.13;0.90;;;;;;;;;;4972984;28;20030;-60
2023/03/02 07:36:52;;;;;;;1.80;0.73;;;;;;;;;;4973091;28;20027;-61
2023/03/02 07:39:19;;;;;;;1.73;1.07;;;;;;;;;;4972640;28;20068;-61
2023/03/02 07:41:46;;;;;;;1.27;0.80;;;;;;;;;;4972781;28;20027;-61
2023/03/02 07:44:13;;;;;;;1.13;1.00;;;;;;;;;;4970927;28;20059;-61
2023/03/02 07:46:39;;;;;;;1.77;1.17;;;;;;;;;;4968160;28;20023;-61
2023/03/02 07:49:06;;;;;;;3.07;1.47;;;;;;;;;;4967809;28;20038;-61
2023/03/02 07:51:33;;;;;;;1.90;1.03;;;;;;;;;;4967926;28;20386;-61
2023/03/02 07:54:01;;;;;;;0.83;0.77;;;;;;;;;;4968599;28;20055;-61
2023/03/02 07:56:28;;;;;;;1.70;1.03;;;;;;;;;;4973092;28;20023;-61
2023/03/02 07:58:55;;;;;;;14.77;1.90;;;;;;;;;;4972678;28;20034;-61
2023/03/02 08:01:22;;;;;;;2.03;1.23;;;;;;;;;;4972540;28;20066;-61
2023/03/02 08:03:48;;;;;;;0.77;0.53;;;;;;;;;;4972765;28;20390;-61
2023/03/02 08:06:15;;;;;;;0.93;0.67;;;;;;;;;;4971688;28;20110;-61
2023/03/02 08:08:42;;;;;;;2.20;0.80;;;;;;;;;;4967831;28;20038;-61
2023/03/02 08:11:10;;;;;;;2.63;0.83;;;;;;;;;;4971061;28;20173;-61
2023/03/02 08:13:36;;;;;;;1.37;0.80;;;;;;;;;;4971203;28;20027;-61
2023/03/02 08:16:04;;;;;;;4.87;1.10;;;;;;;;;;4971457;28;20031;-61
2023/03/02 08:18:31;;;;;;;2.23;1.17;;;;;;;;;;4976600;28;20442;-61
2023/03/02 08:20:58;;;;;;;1.07;0.60;;;;;;;;;;4975934;28;20390;-62
2023/03/02 08:23:25;;;;;;;1.70;1.03;;;;;;;;;;4976302;28;20027;-61
2023/03/02 08:25:53;;;;;;;9.13;1.80;;;;;;;;;;4976355;28;20131;-60
2023/03/02 08:28:20;;;;;;;0.77;0.53;;;;;;;;;;4975259;28;20023;-60
2023/03/02 08:30:57;;;;;;;3.00;0.57;;;;;;;;;;4970532;28;20106;-61
2023/03/02 08:33:24;;;;;;;0.53;0.53;;;;;;;;;;4970776;28;20050;-61
2023/03/02 08:35:54;;;;;;;2.33;1.37;;;;;;;;;;4970873;28;20494;-61
2023/03/02 08:38:22;;;;;;;16.20;0.83;;;;;;;;;;4971330;28;20035;-61
2023/03/02 08:40:50;;;;;;;1.23;0.90;;;;;;;;;;4975671;28;20018;-60
2023/03/02 08:43:17;;;;;;;1.07;0.60;;;;;;;;;;4975563;28;20077;-61
2023/03/02 08:45:44;;;;;;;3.13;1.30;;;;;;;;;;4972610;28;20027;-61
2023/03/02 08:48:10;;;;;;;3.13;1.60;;;;;;;;;;4956823;28;20027;-61
2023/03/02 08:50:37;;;;;;;1.40;0.70;;;;;;;;;;4972456;28;20031;-61
2023/03/02 08:53:03;;;;;;;1.63;1.17;;;;;;;;;;4970816;28;20499;-61
2023/03/02 08:55:30;;;;;;;1.43;1.10;;;;;;;;;;4970307;28;20054;-61
2023/03/02 08:57:57;;;;;;;2.53;1.07;;;;;;;;;;4970694;28;20023;-61
2023/03/02 09:00:23;;;;;;;0.90;0.47;;;;;;;;;;4970544;28;20069;-61
2023/03/02 09:02:50;;;;;;;1.33;0.77;;;;;;;;;;4975486;28;20029;-60
2023/03/02 09:05:17;;;;;;;0.97;0.87;;;;;;;;;;4975543;28;20030;-61
2023/03/02 09:07:44;;;;;;;1.53;1.10;;;;;;;;;;4975332;28;20030;-61
2023/03/02 09:10:13;;;;;;;4.20;1.53;;;;;;;;;;4975020;28;20039;-60
2023/03/02 09:12:39;;;;;;;1.40;1.00;;;;;;;;;;4975366;28;20030;-61
2023/03/02 09:15:06;;;;;;;1.90;1.10;;;;;;;;;;4970269;28;20034;-61
2023/03/02 09:17:33;;;;;;;2.23;0.80;;;;;;;;;;4970106;28;20030;-61
2023/03/02 09:20:00;;;;;;;5.33;1.17;;;;;;;;;;4970097;28;20031;-61
2023/03/02 09:22:27;;;;;;;1.40;1.07;;;;;;;;;;4970023;28;20429;-61
2023/03/02 09:24:54;;;;;;;1.80;0.87;;;;;;;;;;4974206;28;20043;-61
2023/03/02 09:27:20;;;;;;;2.30;1.17;;;;;;;;;;4975036;28;20105;-61
2023/03/02 09:29:47;;;;;;;4.33;1.20;;;;;;;;;;4975137;28;20481;-61
2023/03/02 09:32:14;;;;;;;10.13;1.33;;;;;;;;;;4974761;28;20033;-61
2023/03/02 09:34:41;;;;;;;3.57;1.47;;;;;;;;;;4974680;28;20030;-61
2023/03/02 09:37:08;;;;;;;23.20;2.60;;;;;;;;;;4970351;28;20040;-60
2023/03/02 09:39:34;;;;;;;2.40;1.10;;;;;;;;;;4969515;28;20098;-61
2023/03/02 09:42:01;;;;;;;2.60;1.30;;;;;;;;;;4969969;28;20170;-61
2023/03/02 09:44:50;;;;;;;5.23;1.57;;;;;;;;;;4969800;28;20087;-61
2023/03/02 09:47:20;;;;;;;2.23;1.33;;;;;;;;;;4973568;28;20045;-60
2023/03/02 09:50:05;;;;;;;3.77;1.20;;;;;;;;;;4974993;28;20471;-61
2023/03/02 09:52:35;;;;;;;2.05;1.40;;;;;;;;;;4974665;28;20504;-61
2023/03/02 09:55:21;;;;;;;1.20;0.73;;;;;;;;;;4974565;28;20027;-61
2023/03/02 09:57:48;;;;;;;2.37;1.70;;;;;;;;;;4973489;28;20042;-61
2023/03/02 10:00:32;;;;;;;0.73;0.63;;;;;;;;;;4969216;28;20528;-61
2023/03/02 10:03:02;;;;;;;1.80;1.13;;;;;;;;;;4950280;28;20031;-60
2023/03/02 10:05:34;;;;;;;2.10;1.23;;;;;;;;;;4966729;28;20031;-61
2023/03/02 10:08:00;;;;;;;1.00;0.90;;;;;;;;;;4970230;28;20050;-61
2023/03/02 10:10:45;;;;;;;1.17;0.90;;;;;;;;;;4974159;28;20049;-61
2023/03/02 10:13:27;;;;;;;1.50;1.02;;;;;;;;;;4974647;28;20023;-60
2023/03/02 10:16:12;;;;;;;0.80;0.57;;;;;;;;;;4974116;28;20038;-60
2023/03/02 10:18:45;;;;;;;2.97;1.90;;;;;;;;;;4974445;28;20027;-60
2023/03/02 10:21:22;;;;;;;1.67;1.10;;;;;;;;;;4970591;28;20026;-61
2023/03/02 10:23:58;;;;;;;1.17;1.07;;;;;;;;;;4968370;28;20037;-61
2023/03/02 10:26:34;;;;;;;3.13;1.23;;;;;;;;;;4968943;28;20154;-60
2023/03/02 10:29:03;;;;;;;3.97;1.20;;;;;;;;;;4968728;28;20042;-60
2023/03/02 10:31:32;;;;;;;1.43;1.00;;;;;;;;;;4971878;28;20031;-60
2023/03/02 10:34:02;;;;;;;1.83;1.20;;;;;;;;;;4973304;28;20038;-60
2023/03/02 10:36:32;;;;;;;2.23;1.20;;;;;;;;;;4974266;28;20023;-60
2023/03/02 10:38:59;;;;;;;2.40;1.07;;;;;;;;;;4973358;28;20429;-60
2023/03/02 10:41:29;;;;;;;1.93;1.33;;;;;;;;;;4974020;28;20027;-61
2023/03/02 10:43:59;;;;;;;2.27;1.57;;;;;;;;;;4969481;28;20093;-60
2023/03/02 10:46:25;;;;;;;1.07;0.90;;;;;;;;;;4968795;28;20030;-61
2023/03/02 10:48:58;;;;;;;2.13;1.10;;;;;;;;;;4967972;28;20395;-62
2023/03/02 10:51:33;;;;;;;3.40;1.53;;;;;;;;;;4968763;28;20333;-60
2023/03/02 10:54:09;;;;;;;0.85;0.73;;;;;;;;;;4972473;28;20030;-60
2023/03/02 10:56:36;;;;;;;1.73;1.20;;;;;;;;;;4973631;28;20034;-60
2023/03/02 10:59:26;;;;;;;1.77;1.13;;;;;;;;;;4973214;28;20031;-60
2023/03/02 11:02:13;;;;;;;1.20;0.80;;;;;;;;;;4973557;28;20347;-60
2023/03/02 11:04:40;;;;;;;5.80;1.33;;;;;;;;;;4972269;28;20269;-59
2023/03/02 11:07:11;;;;;;;2.93;1.47;;;;;;;;;;4967977;28;20264;-60
2023/03/02 11:09:37;;;;;;;4.73;1.63;;;;;;;;;;4968486;28;20340;-60
2023/03/02 11:12:04;;;;;;;1.53;1.00;;;;;;;;;;4968306;28;20296;-60
2023/03/02 11:14:32;;;;;;;13.23;1.60;;;;;;;;;;4968809;28;20652;-60
2023/03/02 11:16:59;;;;;;;1.73;1.10;;;;;;;;;;4973567;28;20248;-60
2023/03/02 11:19:31;;;;;;;1.60;1.20;;;;;;;;;;4973185;28;20261;-60
2023/03/02 11:22:06;;;;;;;2.53;1.33;;;;;;;;;;4972895;28;20261;-60
2023/03/02 11:24:37;;;;;;;1.13;1.02;;;;;;;;;;4973207;28;20277;-59
2023/03/02 11:27:10;;;;;;;4.47;1.80;;;;;;;;;;4971968;28;20057;-59
2023/03/02 11:29:42;;;;;;;1.23;1.00;;;;;;;;;;4968063;28;20619;-60
2023/03/02 11:32:19;;;;;;;1.70;1.13;;;;;;;;;;4967661;28;20837;-60
2023/03/02 11:34:49;;;;;;;2.30;1.27;;;;;;;;;;4953258;28;20679;-60
2023/03/02 11:37:18;;;;;;;1.07;0.90;;;;;;;;;;4969625;28;20280;-60
2023/03/02 11:39:45;;;;;;;4.40;1.57;;;;;;;;;;4973015;28;20732;-60
2023/03/02 11:42:19;;;;;;;5.90;1.33;;;;;;;;;;4972916;28;20389;-61
2023/03/02 11:44:47;;;;;;;1.63;1.00;;;;;;;;;;4960097;28;20269;-59
2023/03/02 11:47:14;;;;;;;1.00;0.80;;;;;;;;;;4976971;28;20287;-59
2023/03/02 11:49:43;;;;;;;4.13;1.77;;;;;;;;;;4975005;28;20331;-60
2023/03/02 11:52:19;;;;;;;1.47;0.87;;;;;;;;;;4971581;28;20276;-60
2023/03/02 11:54:49;;;;;;;1.57;1.07;;;;;;;;;;4971813;28;20300;-60
2023/03/02 11:57:30;;;;;;;2.70;1.50;;;;;;;;;;4971211;28;20726;-60
2023/03/02 11:59:58;;;;;;;2.83;1.73;;;;;;;;;;4973642;28;20278;-60
2023/03/02 12:02:25;;;;;;;2.07;1.40;;;;;;;;;;4976687;28;20277;-59
2023/03/02 12:05:02;;;;;;;5.87;1.97;;;;;;;;;;4976762;28;20260;-59
2023/03/02 12:07:28;;;;;;;3.17;1.37;;;;;;;;;;4976591;28;20257;-60
2023/03/02 12:10:01;;;;;;;1.47;1.00;;;;;;;;;;4976151;28;20253;-60
2023/03/02 12:12:41;;;;;;;2.60;1.37;;;;;;;;;;4973440;28;20273;-59
2023/03/02 12:15:26;;;;;;;5.00;1.30;;;;;;;;;;4971275;28;20838;-59
2023/03/02 12:17:53;;;;;;;1.67;0.95;;;;;;;;;;4971284;28;20264;-58
2023/03/02 12:20:27;;;;;;;11.73;1.67;;;;;;;;;;4971247;28;20030;-59
2023/03/02 12:22:54;;;;;;;3.73;1.73;;;;;;;;;;4974713;28;20265;-59
2023/03/02 12:25:20;;;;;;;0.83;0.60;;;;;;;;;;4976341;28;20335;-61
2023/03/02 12:27:48;;;;;;;7.13;2.03;;;;;;;;;;4975998;28;20261;-61
2023/03/02 12:30:22;;;;;;;4.53;1.97;;;;;;;;;;4975733;28;20288;-60
2023/03/02 12:33:03;;;;;;;2.60;1.60;;;;;;;;;;4976018;28;20269;-59
2023/03/02 12:35:34;;;;;;;2.33;1.63;;;;;;;;;;4971468;28;20285;-60
2023/03/02 12:38:02;;;;;;;11.30;2.17;;;;;;;;;;4971265;28;20261;-59
2023/03/02 12:40:44;;;;;;;2.43;1.70;;;;;;;;;;4970346;28;20276;-60
2023/03/02 12:43:11;;;;;;;17.13;2.30;;;;;;;;;;4970460;28;20279;-60
2023/03/02 12:45:46;;;;;;;2.80;1.50;;;;;;;;;;4975314;28;20312;-60
2023/03/02 12:48:29;;;;;;;2.53;1.93;;;;;;;;;;4975931;28;20751;-60
2023/03/02 12:50:59;;;;;;;4.93;2.67;;;;;;;;;;4975609;28;20772;-59
2023/03/02 12:53:26;;;;;;;3.40;2.03;;;;;;;;;;4975942;28;20377;-60
2023/03/02 12:55:52;;;;;;;3.70;2.03;;;;;;;;;;4974622;28;20323;-62
2023/03/02 12:58:23;;;;;;;5.20;1.53;;;;;;;;;;4970605;28;20288;-59
2023/03/02 13:00:54;;;;;;;3.07;1.90;;;;;;;;;;4970399;28;20268;-60
2023/03/02 13:03:21;;;;;;;4.37;2.40;;;;;;;;;;4969919;28;20317;-61
2023/03/02 13:05:48;;;;;;;2.90;1.83;;;;;;;;;;4970328;28;20276;-60
2023/03/02 13:08:19;;;;;;;6.03;1.40;;;;;;;;;;4975432;28;20348;-60
2023/03/02 13:10:50;;;;;;;1.93;1.37;;;;;;;;;;4975423;28;20320;-60
2023/03/02 13:13:18;;;;;;;6.77;2.57;;;;;;;;;;4975527;28;20681;-60
2023/03/02 13:15:52;;;;;;;5.43;2.93;;;;;;;;;;4975267;28;20264;-59
2023/03/02 13:18:20;;;;;;;15.00;3.30;;;;;;;;;;4974276;28;20316;-60
2023/03/02 13:20:48;;;;;;;1.40;1.23;;;;;;;;;;4970064;28;20498;-59
2023/03/02 13:23:15;;;;;;;3.27;1.53;;;;;;;;;;4970125;28;20280;-60
2023/03/02 13:25:55;;;;;;;4.07;2.67;;;;;;;;;;4969967;28;20605;-59
2023/03/02 13:28:40;;;;;;;11.40;1.87;;;;;;;;;;4970087;28;20268;-59
2023/03/02 13:31:24;;;;;;;3.70;2.10;;;;;;;;;;4974858;28;20293;-59
2023/03/02 13:33:56;;;;;;;5.57;2.90;;;;;;;;;;4975031;28;20458;-59
2023/03/02 13:36:24;;;;;;;8.17;2.60;;;;;;;;;;4974709;28;20260;-60
2023/03/02 13:38:52;;;;;;;28.07;3.43;;;;;;;;;;4974763;28;20273;-60
2023/03/02 13:41:30;;;;;;;2.00;1.73;;;;;;;;;;4971748;28;20268;-60
2023/03/02 13:43:57;;;;;;;3.57;2.13;;;;;;;;;;4969940;28;20755;-61
2023/03/02 13:46:34;;;;;;;4.13;2.17;;;;;;;;;;4969279;28;20352;-60
2023/03/02 13:49:02;;;;;;;5.60;2.30;;;;;;;;;;4969600;28;20272;-60
2023/03/02 13:51:37;;;;;;;27.60;2.07;;;;;;;;;;4971824;28;20034;-60
2023/03/02 13:54:03;;;;;;;;;;;;;;;;;;4975306;28;20018;-60
2023/03/02 13:56:37;;;;;;;3.60;2.10;;;;;;;;;;4974562;28;19910;-60
2023/03/02 13:59:13;;;;;;;4.70;2.13;;;;;;;;;;4974077;28;20366;-61
2023/03/02 14:01:40;;;;;;;2.30;1.27;;;;;;;;;;4974474;28;20109;-61
2023/03/02 14:04:10;;;;;;;0.77;0.63;;;;;;;;;;4970660;28;20169;-61
2023/03/02 14:06:37;;;;;;;5.03;2.20;;;;;;;;;;4968115;28;20027;-60
2023/03/02 14:09:04;;;;;;;12.10;1.97;;;;;;;;;;4969319;28;20026;-61
2023/03/02 14:11:34;;;;;;;4.53;2.03;;;;;;;;;;4968692;28;20093;-61
2023/03/02 14:14:02;;;;;;;3.67;1.77;;;;;;;;;;4972129;28;20078;-61
2023/03/02 14:16:28;;;;;;;9.50;3.17;;;;;;;;;;4974228;28;20046;-60
2023/03/02 14:18:55;;;;;;;3.20;1.70;;;;;;;;;;4974324;28;20026;-61
2023/03/02 14:21:24;;;;;;;5.53;2.20;;;;;;;;;;4973965;28;20030;-61
2023/03/02 14:23:51;;;;;;;3.30;2.23;;;;;;;;;;4974224;28;20022;-61
2023/03/02 14:26:18;;;;;;;4.20;2.27;;;;;;;;;;4969931;28;20041;-61
2023/03/02 14:28:45;;;;;;;6.87;1.97;;;;;;;;;;4969216;28;20023;-61
2023/03/02 14:31:11;;;;;;;7.13;1.80;;;;;;;;;;4968600;28;20042;-61
2023/03/02 14:33:38;;;;;;;3.73;2.43;;;;;;;;;;4968678;28;20042;-62
2023/03/02 14:36:05;;;;;;;14.43;2.30;;;;;;;;;;4971717;28;20054;-62
2023/03/02 14:38:32;;;;;;;7.17;1.77;;;;;;;;;;4973877;28;20026;-62
2023/03/02 14:40:59;;;;;;;4.37;1.77;;;;;;;;;;4973995;28;20478;-62
2023/03/02 14:43:25;;;;;;;2.67;1.77;;;;;;;;;;4973382;28;20049;-62
2023/03/02 14:45:53;;;;;;;4.13;2.23;;;;;;;;;;4974125;28;20026;-61
2023/03/02 14:48:19;;;;;;;4.60;2.00;;;;;;;;;;4970198;28;20027;-61
2023/03/02 14:50:48;;;;;;;6.27;2.00;;;;;;;;;;4968571;28;20035;-62
2023/03/02 14:53:26;;;;;;;2.77;1.77;;;;;;;;;;4968688;28;20026;-61